Time;durP1;ratioP1;P1;durP2;ratioP2;P2;SDS_P1;SDS_P2;PMS_P1;PMS_P2;Temp;Humidity;BMP_temperature;BMP_pressure;BME280_temperature;BME280_humidity;BME280_pressure;Samples;Min_cycle;Max_cycle;Signal;HPM_P1;HPM_P2
2022/01/05 00:01:16;;;;;;;15.05;2.05;;;;;;;2.83;100.00;98095.50;4848846;29;20044;-82
2022/01/05 00:03:42;;;;;;;9.13;1.42;;;;;;;2.87;100.00;98095.88;4848943;29;20377;-82
2022/01/05 00:06:07;;;;;;;11.70;1.58;;;;;;;2.81;100.00;98078.97;4866116;29;20092;-81
2022/01/05 00:08:33;;;;;;;9.75;1.73;;;;;;;2.88;100.00;98086.88;4861481;29;20033;-82
2022/01/05 00:10:58;;;;;;;11.98;1.70;;;;;;;2.77;100.00;98069.81;4853145;29;20445;-82
2022/01/05 00:13:23;;;;;;;11.68;1.70;;;;;;;2.92;100.00;98085.44;4842435;29;20102;-82
2022/01/05 00:15:49;;;;;;;11.20;1.65;;;;;;;2.90;100.00;98084.84;4834129;29;20034;-82
2022/01/05 00:18:14;;;;;;;13.52;1.48;;;;;;;2.88;100.00;98066.47;4845753;29;20185;-82
2022/01/05 00:20:41;;;;;;;10.63;2.40;;;;;;;2.96;100.00;98099.91;4851689;29;20174;-82
2022/01/05 00:23:07;;;;;;;12.50;1.83;;;;;;;2.93;100.00;98093.19;4846412;29;20036;-82
2022/01/05 00:25:32;;;;;;;12.68;1.60;;;;;;;2.75;100.00;98067.38;4864637;29;20033;-82
2022/01/05 00:27:57;;;;;;;11.60;1.77;;;;;;;2.99;100.00;98104.78;4836514;29;20034;-83
2022/01/05 00:30:23;;;;;;;10.02;1.80;;;;;;;2.97;100.00;98101.53;4817612;29;20041;-82
2022/01/05 00:32:48;;;;;;;8.50;1.00;;;;;;;2.99;100.00;98104.78;4823612;29;20380;-82
2022/01/05 00:35:14;;;;;;;7.72;1.20;;;;;;;2.99;100.00;98102.13;4866780;29;20042;-82
2022/01/05 00:37:39;;;;;;;9.80;1.20;;;;;;;2.86;100.00;98081.81;4842280;29;20034;-82
2022/01/05 00:40:06;;;;;;;10.50;1.38;;;;;;;2.92;100.00;98096.06;4849094;29;20026;-82
2022/01/05 00:42:32;;;;;;;5.55;0.80;;;;;;;2.96;100.00;98102.56;4830533;29;20041;-82
2022/01/05 00:44:57;;;;;;;5.18;0.80;;;;;;;3.03;100.00;98111.28;4830317;29;20490;-82
2022/01/05 00:47:22;;;;;;;5.18;0.90;;;;;;;3.03;100.00;98108.63;4831543;29;20065;-82
2022/01/05 00:49:48;;;;;;;6.07;1.08;;;;;;;3.00;100.00;98106.41;4832165;29;20121;-82
2022/01/05 00:52:13;;;;;;;8.55;0.85;;;;;;;2.91;100.00;98095.22;4847574;29;20133;-81
2022/01/05 00:54:40;;;;;;;6.45;0.70;;;;;;;2.87;100.00;98095.88;4830502;29;20083;-82
2022/01/05 00:57:06;;;;;;;7.32;0.80;;;;;;;2.65;100.00;98088.28;4847483;29;20046;-81
2022/01/05 00:59:31;;;;;;;5.13;0.60;;;;;;;2.79;100.00;98113.72;4832732;29;20038;-82
2022/01/05 01:01:57;;;;;;;7.70;0.90;;;;;;;2.74;100.00;98104.75;4847001;29;20026;-82
2022/01/05 01:04:22;;;;;;;7.53;0.98;;;;;;;2.65;100.00;98098.06;4828982;29;20033;-82
2022/01/05 01:06:47;;;;;;;7.45;0.93;;;;;;;2.52;100.00;98080.41;4831911;29;20026;-82
2022/01/05 01:09:13;;;;;;;11.07;1.15;;;;;;;2.68;100.00;98110.94;4846495;29;20026;-82
2022/01/05 01:11:38;;;;;;;9.88;1.70;;;;;;;2.56;100.00;98082.41;4830338;29;20081;-82
2022/01/05 01:14:04;;;;;;;8.13;1.10;;;;;;;2.69;100.00;98102.75;4831413;29;20380;-82
2022/01/05 01:16:29;;;;;;;11.32;1.60;;;;;;;2.67;100.00;98104.81;4847138;29;20030;-81
2022/01/05 01:18:55;;;;;;;8.50;1.23;;;;;;;2.67;100.00;98094.19;4857094;29;20459;-82
2022/01/05 01:21:20;;;;;;;7.28;1.42;;;;;;;2.58;100.00;98077.72;4833043;29;20038;-81
2022/01/05 01:23:55;;;;;;;6.10;1.17;;;;;;;2.72;100.00;98094.38;4832845;29;20034;-82
2022/01/05 01:26:22;;;;;;;12.68;1.55;;;;;;;2.59;100.00;98076.69;4850144;29;20038;-83
2022/01/05 01:28:48;;;;;;;10.80;1.10;;;;;;;2.65;100.00;98071.53;4845651;29;20061;-80
2022/01/05 01:31:13;;;;;;;8.48;1.30;;;;;;;2.73;100.00;98096.00;4822973;29;20041;-82
2022/01/05 01:33:39;;;;;;;7.78;1.15;;;;;;;2.79;100.00;98091.66;4867645;29;20045;-83
2022/01/05 01:36:04;;;;;;;8.25;1.10;;;;;;;2.73;100.00;98073.94;4834578;29;20033;-82
2022/01/05 01:38:30;;;;;;;7.28;0.93;;;;;;;2.82;100.00;98093.88;4854442;29;20033;-82
2022/01/05 01:40:55;;;;;;;9.07;0.77;;;;;;;2.47;100.00;98027.97;4834299;29;20368;-82
2022/01/05 01:43:20;;;;;;;8.50;1.13;;;;;;;2.82;100.00;98084.06;4854630;29;20026;-83
2022/01/05 01:45:46;;;;;;;7.07;0.90;;;;;;;2.81;100.00;98078.97;4845019;29;20078;-82
2022/01/05 01:48:11;;;;;;;5.15;0.90;;;;;;;2.81;100.00;98084.28;4856162;29;20466;-82
2022/01/05 01:50:37;;;;;;;8.07;1.17;;;;;;;2.79;100.00;98081.84;4851643;29;20124;-82
2022/01/05 01:53:02;;;;;;;7.47;1.17;;;;;;;2.81;100.00;98085.13;4850128;29;20021;-83
2022/01/05 01:55:28;;;;;;;13.50;3.05;;;;;;;2.84;100.00;98086.50;4870824;29;20025;-82
2022/01/05 01:57:55;;;;;;;12.95;1.60;;;;;;;2.86;100.00;98086.31;4851034;29;20072;-82
2022/01/05 02:00:21;;;;;;;13.93;2.15;;;;;;;2.78;100.00;98060.81;4849951;29;20544;-82
2022/01/05 02:02:46;;;;;;;8.70;1.55;;;;;;;2.90;100.00;98074.22;4854840;29;20647;-83
2022/01/05 02:05:13;;;;;;;9.77;2.03;;;;;;;2.91;100.00;98081.94;4839239;29;20041;-83
2022/01/05 02:07:38;;;;;;;12.90;2.13;;;;;;;2.89;100.00;98077.91;4872127;29;20034;-82
2022/01/05 02:10:09;;;;;;;11.50;1.83;;;;;;;2.70;100.00;98056.59;4844337;29;20065;-83
2022/01/05 02:12:34;;;;;;;12.18;1.80;;;;;;;2.85;100.00;98071.38;4861832;29;20273;-83
2022/01/05 02:15:00;;;;;;;13.73;1.70;;;;;;;2.89;100.00;98075.25;4809478;29;20372;-83
2022/01/05 02:17:43;;;;;;;10.25;2.05;;;;;;;2.81;100.00;98047.09;4836615;29;20041;-83
2022/01/05 02:20:17;;;;;;;12.30;1.80;;;;;;;2.99;100.00;98083.53;4828683;29;20029;-83
2022/01/05 02:22:43;;;;;;;13.75;2.47;;;;;;;2.91;100.00;98076.63;4853343;29;20033;-82
2022/01/05 02:25:09;;;;;;;11.30;1.60;;;;;;;3.02;100.00;98078.59;4839785;29;20044;-82
2022/01/05 02:27:37;;;;;;;8.20;1.58;;;;;;;2.92;100.00;98053.56;4841867;29;20053;-83
2022/01/05 02:30:04;;;;;;;13.27;1.48;;;;;;;2.95;100.00;98069.06;4849348;29;20041;-83
2022/01/05 02:32:29;;;;;;;13.93;2.22;;;;;;;3.04;100.00;98078.38;4821881;29;20030;-82
2022/01/05 02:34:54;;;;;;;13.38;1.85;;;;;;;3.06;100.00;98085.09;4835857;29;20037;-83
2022/01/05 02:37:20;;;;;;;9.20;1.85;;;;;;;3.08;100.00;98086.72;4854110;29;20026;-83
2022/01/05 02:39:45;;;;;;;13.63;2.33;;;;;;;2.97;100.00;98072.31;4835460;29;20040;-83
2022/01/05 02:42:10;;;;;;;16.35;1.95;;;;;;;3.08;100.00;98082.25;4829886;29;20031;-83
2022/01/05 02:44:45;;;;;;;11.82;1.95;;;;;;;2.89;100.00;98056.66;4847459;29;20514;-83
2022/01/05 02:47:10;;;;;;;12.15;2.20;;;;;;;3.06;100.00;98094.91;4821463;29;20031;-82
2022/01/05 02:49:36;;;;;;;12.68;2.40;;;;;;;2.99;100.00;98078.22;4835851;29;20038;-82
2022/01/05 02:52:02;;;;;;;9.25;1.60;;;;;;;2.52;100.00;98004.25;4832810;29;20040;-83
2022/01/05 02:54:27;;;;;;;9.27;2.65;;;;;;;2.99;100.00;98078.22;4841577;29;20038;-83
2022/01/05 02:56:53;;;;;;;13.38;2.70;;;;;;;3.04;100.00;98086.34;4822493;29;20112;-83
2022/01/05 02:59:19;;;;;;;9.27;1.88;;;;;;;3.03;100.00;98095.34;4854322;29;20037;-83
2022/01/05 03:01:44;;;;;;;10.63;2.20;;;;;;;3.01;100.00;98094.75;4854022;29;20062;-83
2022/01/05 03:04:09;;;;;;;8.68;1.63;;;;;;;2.99;100.00;98094.16;4854623;29;20033;-83
2022/01/05 03:06:35;;;;;;;10.20;1.98;;;;;;;2.98;100.00;98098.66;4838477;29;20025;-83
2022/01/05 03:09:00;;;;;;;18.25;1.80;;;;;;;2.71;100.00;98050.25;4836892;29;20124;-83
2022/01/05 03:11:25;;;;;;;9.95;1.35;;;;;;;2.90;100.00;98083.00;4821353;29;20034;-83
2022/01/05 03:13:51;;;;;;;10.75;1.40;;;;;;;2.82;100.00;98076.13;4816740;29;20029;-83
2022/01/05 03:16:16;;;;;;;5.30;1.05;;;;;;;2.92;100.00;98090.75;4873846;29;20036;-82
2022/01/05 03:18:41;;;;;;;9.90;1.35;;;;;;;2.90;100.00;98075.03;4855988;29;20034;-82
2022/01/05 03:21:07;;;;;;;15.55;1.38;;;;;;;2.92;100.00;98080.13;4843821;29;20490;-84
2022/01/05 03:23:32;;;;;;;6.82;1.40;;;;;;;2.93;100.00;98079.09;4858407;29;20034;-83
2022/01/05 03:25:58;;;;;;;12.48;1.70;;;;;;;2.79;100.00;98049.19;4823239;29;20045;-82
2022/01/05 03:28:23;;;;;;;16.85;1.73;;;;;;;2.91;100.00;98081.94;4837884;29;20034;-83
2022/01/05 03:30:48;;;;;;;11.77;1.65;;;;;;;2.47;100.00;98003.28;4836982;29;20061;-83
2022/01/05 03:33:20;;;;;;;14.38;1.45;;;;;;;2.96;100.00;98074.16;4838254;29;20045;-83
2022/01/05 03:35:47;;;;;;;9.00;1.13;;;;;;;2.97;100.00;98074.97;4842168;29;20059;-83
2022/01/05 03:38:15;;;;;;;12.70;1.83;;;;;;;2.97;100.00;98093.56;4871589;29;20029;-82
2022/01/05 03:40:42;;;;;;;9.85;1.10;;;;;;;2.94;100.00;98089.50;4854246;29;20052;-83
2022/01/05 03:43:08;;;;;;;9.90;1.05;;;;;;;2.85;100.00;98098.78;4864181;29;20094;-82
2022/01/05 03:45:35;;;;;;;6.50;1.40;;;;;;;2.57;100.00;98067.31;4856923;29;20045;-82
2022/01/05 03:48:01;;;;;;;7.97;1.00;;;;;;;2.58;100.00;98083.03;4843723;29;20030;-83
2022/01/05 03:50:27;;;;;;;9.13;1.00;;;;;;;2.58;100.00;98100.78;4849024;29;20183;-83
2022/01/05 03:52:53;;;;;;;7.20;1.25;;;;;;;2.35;100.00;98074.78;4850263;29;20067;-82
2022/01/05 03:55:18;;;;;;;10.30;1.00;;;;;;;2.34;100.00;98094.38;4848039;29;20108;-82
2022/01/05 03:57:43;;;;;;;5.85;0.70;;;;;;;2.21;100.00;98089.97;4833319;29;20058;-82
2022/01/05 04:00:10;;;;;;;6.18;0.98;;;;;;;2.10;100.00;98093.28;4824379;29;20473;-81
2022/01/05 04:02:35;;;;;;;2.88;0.73;;;;;;;2.01;100.00;98076.78;4822913;29;20038;-81
2022/01/05 04:05:00;;;;;;;6.95;0.80;;;;;;;1.92;100.00;98067.47;4824009;29;20347;-81
2022/01/05 04:07:26;;;;;;;7.60;0.85;;;;;;;2.00;100.00;98083.13;4823054;29;20039;-81
2022/01/05 04:09:51;;;;;;;4.60;0.70;;;;;;;1.99;100.00;98076.22;4824078;29;20099;-81
2022/01/05 04:12:16;;;;;;;7.00;0.95;;;;;;;1.59;100.00;98010.09;4807912;29;20117;-82
2022/01/05 04:14:42;;;;;;;6.25;1.00;;;;;;;1.84;100.00;98051.78;4809463;29;20078;-82
2022/01/05 04:17:08;;;;;;;6.95;1.00;;;;;;;1.74;100.00;98033.69;4809634;29;20026;-81
2022/01/05 04:19:35;;;;;;;5.13;0.80;;;;;;;1.75;100.00;98053.84;4835655;29;20034;-81
2022/01/05 04:22:01;;;;;;;7.35;1.13;;;;;;;1.54;100.00;98011.75;4822019;29;20137;-82
2022/01/05 04:24:27;;;;;;;9.35;1.23;;;;;;;1.69;100.00;98046.75;4820315;29;20090;-82
2022/01/05 04:26:52;;;;;;;12.45;1.40;;;;;;;1.78;100.00;98057.94;4811383;29;20114;-81
2022/01/05 04:29:18;;;;;;;14.85;1.70;;;;;;;1.82;100.00;98049.38;4825758;29;20372;-81
2022/01/05 04:31:43;;;;;;;17.02;1.70;;;;;;;1.89;100.00;98062.59;4824117;29;20088;-81
2022/01/05 04:34:09;;;;;;;17.17;2.10;;;;;;;1.98;100.00;98060.50;4826434;29;20089;-80
2022/01/05 04:36:34;;;;;;;18.40;2.55;;;;;;;2.10;100.00;98058.81;4825336;29;20050;-81
2022/01/05 04:39:00;;;;;;;18.88;2.50;;;;;;;2.23;100.00;98049.97;4844279;29;20337;-81
2022/01/05 04:41:25;;;;;;;29.52;3.33;;;;;;;2.40;100.00;98061.69;4836917;29;20056;-81
2022/01/05 04:43:50;;;;;;;18.25;2.42;;;;;;;2.16;100.00;97998.78;4830930;29;20480;-81
2022/01/05 04:46:16;;;;;;;19.55;3.70;;;;;;;2.64;100.00;98064.59;4794730;29;20450;-81
2022/01/05 04:48:42;;;;;;;18.85;2.97;;;;;;;2.62;100.00;98058.72;4804459;29;20033;-81
2022/01/05 04:51:07;;;;;;;18.83;2.58;;;;;;;2.45;100.00;98015.94;4828102;29;20038;-81
2022/01/05 04:53:33;;;;;;;25.00;3.13;;;;;;;2.81;100.00;98074.50;4812501;29;20036;-81
2022/01/05 04:55:58;;;;;;;19.90;3.25;;;;;;;2.87;100.00;98058.72;4827916;29;20034;-80
2022/01/05 04:58:24;;;;;;;19.65;2.72;;;;;;;2.79;100.00;98057.94;4827835;29;20133;-81
2022/01/05 05:00:49;;;;;;;18.25;2.83;;;;;;;2.89;100.00;98046.03;4825589;29;20553;-81
2022/01/05 05:03:14;;;;;;;26.63;3.03;;;;;;;2.97;100.00;98059.03;4824624;29;20094;-81
2022/01/05 05:05:40;;;;;;;23.33;3.63;;;;;;;2.97;100.00;98064.34;4828490;29;20034;-81
2022/01/05 05:08:05;;;;;;;23.35;3.20;;;;;;;2.78;100.00;98029.78;4841781;29;20034;-80
2022/01/05 05:10:31;;;;;;;22.25;3.00;;;;;;;2.94;100.00;98046.19;4847942;29;20042;-81
2022/01/05 05:12:56;;;;;;;22.02;2.67;;;;;;;2.94;100.00;98056.81;4813142;29;20026;-81
2022/01/05 05:15:22;;;;;;;16.58;2.55;;;;;;;3.05;100.00;98077.38;4828107;29;20581;-80
2022/01/05 05:17:48;;;;;;;10.73;2.42;;;;;;;3.06;100.00;98073.66;4841695;29;20040;-81
2022/01/05 05:20:13;;;;;;;20.85;2.75;;;;;;;3.06;100.00;98078.97;4846493;29;20412;-81
2022/01/05 05:22:39;;;;;;;13.23;2.20;;;;;;;3.05;100.00;98074.72;4846424;29;20041;-81
2022/01/05 05:25:05;;;;;;;12.80;2.50;;;;;;;3.02;100.00;98080.44;4846243;29;20034;-80
2022/01/05 05:27:31;;;;;;;16.83;3.10;;;;;;;2.95;100.00;98066.41;4863615;29;20106;-81
2022/01/05 05:29:56;;;;;;;15.82;3.03;;;;;;;2.79;100.00;98033.25;4853555;29;20035;-80
2022/01/05 05:32:22;;;;;;;11.60;2.50;;;;;;;2.99;100.00;98072.91;4826968;29;20369;-80
2022/01/05 05:34:47;;;;;;;17.23;2.95;;;;;;;2.94;100.00;98084.19;4826587;29;20049;-81
2022/01/05 05:37:15;;;;;;;11.50;2.53;;;;;;;2.93;100.00;98081.75;4844819;29;20398;-80
2022/01/05 05:39:41;;;;;;;12.45;2.65;;;;;;;2.92;100.00;98080.94;4826772;29;20026;-81
2022/01/05 05:42:06;;;;;;;8.38;2.28;;;;;;;2.90;100.00;98077.69;4828635;29;20119;-81
2022/01/05 05:44:32;;;;;;;9.32;2.35;;;;;;;2.81;100.00;98063.03;4824703;29;20038;-81
2022/01/05 05:46:57;;;;;;;11.98;2.25;;;;;;;2.89;100.00;98072.59;4839908;29;20026;-81
2022/01/05 05:49:22;;;;;;;13.25;2.45;;;;;;;2.78;100.00;98066.97;4828992;29;20067;-81
2022/01/05 05:51:48;;;;;;;12.00;2.35;;;;;;;2.82;100.00;98075.31;4814326;29;20030;-80
2022/01/05 05:54:13;;;;;;;10.65;2.20;;;;;;;2.88;100.00;98087.72;4845215;29;20034;-81
2022/01/05 05:56:38;;;;;;;11.70;2.28;;;;;;;2.89;100.00;98091.19;4837650;29;20100;-81
2022/01/05 05:59:04;;;;;;;16.05;2.42;;;;;;;2.90;100.00;98100.78;4815004;29;20038;-82
2022/01/05 06:01:29;;;;;;;9.10;2.15;;;;;;;2.78;100.00;98069.63;4811725;29;20083;-82
2022/01/05 06:03:56;;;;;;;10.02;2.50;;;;;;;2.75;100.00;98066.59;4836763;29;20038;-82
2022/01/05 06:06:21;;;;;;;10.13;2.17;;;;;;;2.94;100.00;98080.72;4843388;29;20051;-81
2022/01/05 06:08:46;;;;;;;15.77;2.40;;;;;;;3.00;100.00;98098.44;4835332;29;20030;-84
2022/01/05 06:11:12;;;;;;;10.88;2.17;;;;;;;3.06;100.00;98102.91;4839122;29;20037;-83
2022/01/05 06:13:37;;;;;;;12.48;2.25;;;;;;;3.07;100.00;98104.50;4826672;29;20040;-82
2022/01/05 06:16:03;;;;;;;12.63;2.35;;;;;;;3.08;100.00;98111.47;4835788;29;20042;-82
2022/01/05 06:18:28;;;;;;;11.45;2.38;;;;;;;3.10;100.00;98122.69;4845567;29;20034;-81
2022/01/05 06:20:54;;;;;;;9.32;2.00;;;;;;;3.13;100.00;98129.41;4851270;29;20500;-83
2022/01/05 06:23:19;;;;;;;12.40;2.50;;;;;;;3.15;100.00;98130.81;4833369;29;20053;-82
2022/01/05 06:25:45;;;;;;;10.48;2.17;;;;;;;2.98;100.00;98103.97;4829789;29;20061;-82
2022/01/05 06:28:11;;;;;;;6.28;2.15;;;;;;;2.30;100.00;97995.81;4828055;29;20038;-82
2022/01/05 06:30:40;;;;;;;8.40;2.00;;;;;;;3.17;100.00;98133.25;4830902;29;20045;-82
2022/01/05 06:33:06;;;;;;;6.47;2.30;;;;;;;3.18;100.00;98145.50;4828544;29;20664;-82
2022/01/05 06:35:32;;;;;;;14.73;2.30;;;;;;;3.19;100.00;98153.28;4830945;29;20030;-82
2022/01/05 06:37:57;;;;;;;8.25;2.22;;;;;;;3.19;100.00;98149.81;4828850;29;20137;-82
2022/01/05 06:40:23;;;;;;;6.35;1.98;;;;;;;3.20;100.00;98154.06;4841895;29;20026;-81
2022/01/05 06:42:49;;;;;;;8.68;2.13;;;;;;;2.95;100.00;98114.22;4839091;29;20034;-81
2022/01/05 06:45:14;;;;;;;9.52;2.70;;;;;;;3.17;100.00;98155.31;4824493;29;20045;-81
2022/01/05 06:47:39;;;;;;;10.48;1.95;;;;;;;3.20;100.00;98165.50;4808120;29;20045;-82
2022/01/05 06:50:05;;;;;;;12.25;2.03;;;;;;;3.17;100.00;98157.16;4819710;29;20045;-81
2022/01/05 06:52:31;;;;;;;13.57;2.35;;;;;;;3.22;100.00;98168.78;4821372;29;20365;-81
2022/01/05 06:54:56;;;;;;;8.10;2.10;;;;;;;3.19;100.00;98174.53;4819122;29;20429;-81
2022/01/05 06:57:22;;;;;;;5.75;2.00;;;;;;;3.13;100.00;98159.44;4816983;29;20078;-81
2022/01/05 06:59:47;;;;;;;6.47;1.88;;;;;;;3.11;100.00;98163.34;4808706;29;20045;-81
2022/01/05 07:02:13;;;;;;;7.78;1.90;;;;;;;3.28;100.00;98185.72;4809327;29;20106;-81
2022/01/05 07:04:38;;;;;;;9.07;2.05;;;;;;;3.29;100.00;98196.13;4839968;29;20116;-81
2022/01/05 07:07:04;;;;;;;9.02;2.00;;;;;;;3.24;100.00;98182.66;4812343;29;20090;-81
2022/01/05 07:09:29;;;;;;;8.98;1.80;;;;;;;3.34;100.00;98197.31;4815268;29;20110;-81
2022/01/05 07:11:55;;;;;;;7.30;1.85;;;;;;;3.04;100.00;98158.06;4815076;29;20050;-81
2022/01/05 07:14:20;;;;;;;7.47;2.10;;;;;;;3.33;100.00;98208.97;4831291;29;20037;-82
2022/01/05 07:16:45;;;;;;;5.75;1.60;;;;;;;3.24;100.00;98203.91;4850070;29;20026;-82
2022/01/05 07:19:11;;;;;;;9.70;1.80;;;;;;;3.32;100.00;98215.31;4829874;29;20418;-82
2022/01/05 07:21:36;;;;;;;5.20;2.00;;;;;;;3.19;100.00;98189.66;4832585;29;20090;-81
2022/01/05 07:24:03;;;;;;;7.57;1.95;;;;;;;3.35;100.00;98218.38;4844049;29;20042;-82
2022/01/05 07:26:29;;;;;;;6.43;1.92;;;;;;;3.25;100.00;98210.88;4842689;29;20044;-81
2022/01/05 07:28:56;;;;;;;6.88;1.80;;;;;;;3.33;100.00;98216.94;4844430;29;20041;-81
2022/01/05 07:31:21;;;;;;;5.72;1.60;;;;;;;3.37;100.00;98226.09;4827007;29;20473;-81
2022/01/05 07:33:47;;;;;;;5.05;1.70;;;;;;;3.35;100.00;98220.22;4840745;29;20042;-81
2022/01/05 07:36:12;;;;;;;8.48;2.05;;;;;;;3.36;100.00;98227.97;4844876;29;20075;-81
2022/01/05 07:38:38;;;;;;;7.70;1.75;;;;;;;3.37;100.00;98231.44;4843996;29;20037;-81
2022/01/05 07:41:03;;;;;;;5.13;1.20;;;;;;;3.37;100.00;98234.91;4854397;29;20038;-81
2022/01/05 07:43:29;;;;;;;7.03;1.50;;;;;;;3.39;100.00;98242.66;4842491;29;20033;-81
2022/01/05 07:45:54;;;;;;;6.20;1.25;;;;;;;3.37;100.00;98244.72;4844372;29;20523;-81
2022/01/05 07:48:20;;;;;;;6.05;1.35;;;;;;;3.33;100.00;98240.88;4824937;29;20044;-82
2022/01/05 07:50:45;;;;;;;8.82;1.40;;;;;;;3.38;100.00;98244.50;4861192;29;20037;-81
2022/01/05 07:53:10;;;;;;;6.07;1.35;;;;;;;3.42;100.00;98245.72;4851234;29;20030;-81
2022/01/05 07:55:37;;;;;;;3.38;1.20;;;;;;;3.43;100.00;98249.97;4827458;29;20381;-81
2022/01/05 07:58:03;;;;;;;5.47;1.05;;;;;;;3.36;100.00;98232.47;4825830;29;20058;-82
2022/01/05 08:00:28;;;;;;;6.60;1.80;;;;;;;3.39;100.00;98245.31;4843021;29;20101;-81
2022/01/05 08:02:54;;;;;;;8.13;1.52;;;;;;;3.34;100.00;98248.63;4836140;29;20037;-81
2022/01/05 08:05:19;;;;;;;5.97;1.60;;;;;;;3.25;100.00;98237.44;4848677;29;20068;-81
2022/01/05 08:07:45;;;;;;;14.63;1.98;;;;;;;3.43;100.00;98262.47;4838491;29;20068;-81
2022/01/05 08:10:11;;;;;;;11.68;2.40;;;;;;;3.30;100.00;98252.72;4814385;29;20042;-81
2022/01/05 08:12:36;;;;;;;13.70;9.90;;;;;;;3.21;100.00;98240.72;4852882;29;20380;-82
2022/01/05 08:15:02;;;;;;;9.35;5.50;;;;;;;3.09;100.00;98227.31;4837226;29;20043;-82
2022/01/05 08:17:27;;;;;;;12.75;5.45;;;;;;;3.37;100.00;98272.09;4869611;29;20025;-81
2022/01/05 08:19:53;;;;;;;12.32;7.43;;;;;;;3.37;100.00;98271.28;4861632;29;20057;-81
2022/01/05 08:22:18;;;;;;;9.27;5.78;;;;;;;3.24;100.00;98251.75;4848892;29;20476;-81
2022/01/05 08:24:44;;;;;;;7.60;3.97;;;;;;;3.22;100.00;98255.66;4849244;29;20033;-82
2022/01/05 08:27:09;;;;;;;7.63;3.50;;;;;;;3.39;100.00;98290.50;4838745;29;20041;-81
2022/01/05 08:29:35;;;;;;;6.60;3.78;;;;;;;3.35;100.00;98295.44;4846302;29;20121;-81
2022/01/05 08:32:02;;;;;;;8.57;1.83;;;;;;;3.21;100.00;98305.34;4847197;29;20070;-82
2022/01/05 08:34:29;;;;;;;12.73;2.90;;;;;;;2.88;100.00;98270.97;4849569;29;20038;-81
2022/01/05 08:36:56;;;;;;;11.68;2.80;;;;;;;3.04;100.00;98320.94;4860625;29;20714;-82
2022/01/05 08:39:23;;;;;;;9.35;2.45;;;;;;;2.95;100.00;98300.16;4848521;29;20101;-81
2022/01/05 08:41:49;;;;;;;10.60;2.63;;;;;;;2.98;100.00;98326.28;4833577;29;20025;-81
2022/01/05 08:44:14;;;;;;;12.48;2.90;;;;;;;2.77;100.00;98304.31;4829850;29;20194;-82
2022/01/05 08:46:40;;;;;;;8.63;3.22;;;;;;;2.88;100.00;98336.53;4820573;29;20113;-82
2022/01/05 08:49:05;;;;;;;11.18;3.38;;;;;;;2.81;100.00;98337.41;4828926;29;20465;-81
2022/01/05 08:51:30;;;;;;;10.48;3.33;;;;;;;2.82;100.00;98352.31;4820888;29;20178;-82
2022/01/05 08:53:56;;;;;;;12.13;3.50;;;;;;;2.77;100.00;98352.09;4814709;29;20445;-82
2022/01/05 08:56:23;;;;;;;9.82;3.78;;;;;;;2.77;100.00;98357.41;4825575;29;20037;-81
2022/01/05 08:58:50;;;;;;;12.07;3.85;;;;;;;2.62;100.00;98332.16;4815392;29;20034;-81
2022/01/05 09:01:15;;;;;;;9.02;3.75;;;;;;;2.57;100.00;98359.31;4828595;29;20042;-82
2022/01/05 09:03:41;;;;;;;7.18;3.65;;;;;;;2.62;100.00;98386.06;4814871;29;20045;-81
2022/01/05 09:06:07;;;;;;;15.05;3.83;;;;;;;2.46;100.00;98368.72;4833308;29;20061;-82
2022/01/05 09:08:37;;;;;;;10.70;4.18;;;;;;;2.52;100.00;98386.47;4805273;29;20058;-81
2022/01/05 09:11:03;;;;;;;12.70;4.38;;;;;;;2.46;100.00;98391.81;4854772;29;20033;-82
2022/01/05 09:13:29;;;;;;;14.63;4.25;;;;;;;2.46;100.00;98391.81;4833062;29;20038;-82
2022/01/05 09:15:55;;;;;;;12.07;5.70;;;;;;;2.36;100.00;98392.22;4831764;29;20037;-82
2022/01/05 09:18:20;;;;;;;13.07;5.15;;;;;;;2.35;100.00;98412.63;4849387;29;20411;-83
2022/01/05 09:20:45;;;;;;;15.35;5.82;;;;;;;2.26;100.00;98411.19;4804252;29;20041;-81
2022/01/05 09:23:11;;;;;;;11.20;5.35;;;;;;;2.28;100.00;98422.41;4830466;29;20643;-82
2022/01/05 09:25:37;;;;;;;12.20;5.50;;;;;;;2.18;100.00;98426.50;4826578;29;20099;-82
2022/01/05 09:28:02;;;;;;;15.05;5.88;;;;;;;2.13;100.00;98423.66;4799783;29;20064;-82
2022/01/05 09:30:29;;;;;;;12.82;5.20;;;;;;;2.24;100.00;98442.41;4810772;29;20130;-81
2022/01/05 09:32:54;;;;;;;11.63;4.97;;;;;;;2.19;100.00;98449.38;4829510;29;20558;-81
2022/01/05 09:35:22;;;;;;;8.98;4.60;;;;;;;2.07;100.00;98451.78;4828910;29;20079;-81
2022/01/05 09:43:05;;;;;;;6.78;2.30;;;;;;;1.59;100.00;98473.06;4857685;29;20694;-82
2022/01/05 09:45:34;;;;;;;6.47;2.40;;;;;;;1.58;100.00;98476.75;4831999;29;20051;-82
2022/01/05 09:48:38;;;;;;;6.40;3.05;;;;;;;1.67;100.00;98483.53;4849233;29;20068;-81
2022/01/05 09:51:10;;;;;;;5.90;2.97;;;;;;;1.56;100.00;98476.16;4856846;29;20026;-81
2022/01/05 09:53:36;;;;;;;8.63;3.67;;;;;;;1.54;100.00;98492.25;4844436;29;20037;-81
2022/01/05 09:56:04;;;;;;;6.55;2.90;;;;;;;1.37;100.00;98483.81;4810984;29;20034;-81
2022/01/05 09:58:31;;;;;;;6.35;2.90;;;;;;;1.17;100.00;98472.31;4814025;29;20166;-81
2022/01/05 10:00:56;;;;;;;8.57;2.20;;;;;;;1.20;100.00;98487.81;4845738;29;20086;-82
2022/01/05 10:03:22;;;;;;;2.88;1.50;;;;;;;1.29;100.00;98536.13;4823598;29;20045;-81
2022/01/05 10:05:47;;;;;;;3.78;1.67;;;;;;;1.05;100.00;98503.00;4827900;29;20034;-81
2022/01/05 10:08:13;;;;;;;3.58;1.80;;;;;;;1.20;100.00;98514.31;4845755;29;20042;-81
2022/01/05 10:10:41;;;;;;;2.58;1.50;;;;;;;1.05;100.00;98495.84;4871335;29;20049;-81
2022/01/05 10:13:06;;;;;;;5.32;1.63;;;;;;;1.30;100.00;98530.66;4853974;29;20037;-82
2022/01/05 10:15:33;;;;;;;2.15;1.50;;;;;;;1.17;100.00;98527.94;4813355;29;20087;-81
2022/01/05 10:18:19;;;;;;;1.20;0.98;;;;;;;1.27;100.00;98536.34;4827895;29;20034;-82
2022/01/05 10:21:03;;;;;;;1.65;0.90;;;;;;;1.31;100.00;98545.53;4850587;29;20030;-82
2022/01/05 10:23:45;;;;;;;3.47;0.90;;;;;;;1.33;100.00;98546.16;4835557;29;20042;-83
2022/01/05 10:26:39;;;;;;;1.15;0.80;;;;;;;1.36;100.00;98555.56;4829624;29;20023;-83
2022/01/05 10:29:15;;;;;;;1.75;0.70;;;;;;;1.43;100.00;98555.59;4820174;29;20030;-81
2022/01/05 10:31:43;;;;;;;1.95;0.77;;;;;;;1.40;100.00;98562.09;4836463;29;20446;-81
2022/01/05 10:34:20;;;;;;;0.77;0.60;;;;;;;1.28;100.00;98561.00;4843658;29;20038;-81
2022/01/05 10:36:56;;;;;;;1.50;0.77;;;;;;;1.32;100.00;98565.69;4827123;29;20030;-80
2022/01/05 10:39:31;;;;;;;1.95;0.70;;;;;;;1.29;100.00;98550.22;4863830;29;20029;-81
2022/01/05 10:42:03;;;;;;;;;;;;;;;1.45;100.00;98574.75;4870272;29;20033;-83
2022/01/05 10:44:28;;;;;;;0.82;0.70;;;;;;;1.54;100.00;98578.88;4838472;29;19927;-84
2022/01/05 10:46:56;;;;;;;2.10;0.60;;;;;;;1.64;100.00;98589.94;4857748;29;20030;-82
2022/01/05 10:49:48;;;;;;;2.70;0.68;;;;;;;1.73;100.00;98585.31;4836663;29;20089;-82
2022/01/05 10:52:26;;;;;;;1.33;0.50;;;;;;;1.78;100.00;98582.88;4851023;29;20444;-81
2022/01/05 10:54:53;;;;;;;1.30;0.50;;;;;;;1.86;100.00;98594.16;4819951;29;20041;-82
2022/01/05 10:57:19;;;;;;;1.75;0.60;;;;;;;1.86;100.00;98596.78;4824919;29;20089;-81
2022/01/05 10:59:47;;;;;;;1.50;0.30;;;;;;;1.99;100.00;98605.84;4822120;29;20269;-81
2022/01/05 11:02:22;;;;;;;0.38;0.20;;;;;;;2.05;100.00;98620.94;4820867;29;20041;-80
2022/01/05 11:04:48;;;;;;;3.40;0.30;;;;;;;1.98;100.00;98617.44;4816403;29;20121;-81
2022/01/05 11:07:25;;;;;;;1.55;0.40;;;;;;;1.99;100.00;98606.66;4843139;29;20469;-82
2022/01/05 11:09:59;;;;;;;1.25;0.25;;;;;;;1.89;100.00;98579.69;4845053;29;20030;-81
2022/01/05 11:12:36;;;;;;;3.38;1.40;;;;;;;2.14;100.00;98624.25;4828514;29;20036;-81
2022/01/05 11:15:16;;;;;;;1.17;0.30;;;;;;;2.15;100.00;98631.19;4863068;29;20384;-81
2022/01/05 11:18:15;;;;;;;0.90;0.30;;;;;;;2.05;100.00;98627.09;4845379;29;20029;-81
2022/01/05 11:20:44;;;;;;;2.35;0.35;;;;;;;1.99;100.00;98629.72;4858728;29;20350;-81
2022/01/05 11:23:11;;;;;;;2.50;0.30;;;;;;;1.86;100.00;98617.19;4850803;29;20368;-81
2022/01/05 11:25:38;;;;;;;1.45;0.47;;;;;;;2.01;100.00;98644.38;4840354;29;20044;-81
2022/01/05 11:28:05;;;;;;;1.50;0.30;;;;;;;1.97;100.00;98645.81;4841676;29;20041;-81
2022/01/05 11:30:31;;;;;;;1.75;0.70;;;;;;;2.14;100.00;98675.47;4859740;29;20048;-81
2022/01/05 11:32:57;;;;;;;2.42;0.68;;;;;;;1.97;100.00;98650.28;4857315;29;20056;-81